sensor_id;sensor_type;location;lat;lon;timestamp;P1;durP1;ratioP1;P2;durP2;ratioP2
50681;SDS011;36779;52.168;20.878;2022-07-21T00:00:19;6.40;;;4.10;;
50681;SDS011;36779;52.168;20.878;2022-07-21T00:03:03;6.50;;;4.00;;
50681;SDS011;36779;52.168;20.878;2022-07-21T00:05:31;4.80;;;3.90;;
50681;SDS011;36779;52.168;20.878;2022-07-21T00:08:00;5.50;;;4.10;;
50681;SDS011;36779;52.168;20.878;2022-07-21T00:10:28;5.50;;;4.00;;
50681;SDS011;36779;52.168;20.878;2022-07-21T00:12:57;5.80;;;4.20;;
50681;SDS011;36779;52.168;20.878;2022-07-21T00:15:26;5.30;;;4.10;;
50681;SDS011;36779;52.168;20.878;2022-07-21T00:17:56;6.00;;;4.00;;
50681;SDS011;36779;52.168;20.878;2022-07-21T00:20:28;6.50;;;4.20;;
50681;SDS011;36779;52.168;20.878;2022-07-21T00:22:58;4.80;;;4.30;;
50681;SDS011;36779;52.168;20.878;2022-07-21T00:25:27;6.20;;;4.00;;
50681;SDS011;36779;52.168;20.878;2022-07-21T00:28:01;5.40;;;4.30;;
50681;SDS011;36779;52.168;20.878;2022-07-21T00:30:31;8.00;;;4.30;;
50681;SDS011;36779;52.168;20.878;2022-07-21T00:33:01;8.70;;;4.70;;
50681;SDS011;36779;52.168;20.878;2022-07-21T00:35:31;6.70;;;4.70;;
50681;SDS011;36779;52.168;20.878;2022-07-21T00:38:02;5.60;;;4.30;;
50681;SDS011;36779;52.168;20.878;2022-07-21T00:40:31;4.70;;;4.00;;
50681;SDS011;36779;52.168;20.878;2022-07-21T00:43:00;7.10;;;4.20;;
50681;SDS011;36779;52.168;20.878;2022-07-21T00:45:28;8.40;;;4.70;;
50681;SDS011;36779;52.168;20.878;2022-07-21T00:47:58;6.20;;;4.40;;
50681;SDS011;36779;52.168;20.878;2022-07-21T00:50:26;8.50;;;4.90;;
50681;SDS011;36779;52.168;20.878;2022-07-21T00:52:56;5.80;;;4.30;;
50681;SDS011;36779;52.168;20.878;2022-07-21T00:55:24;5.10;;;4.40;;
50681;SDS011;36779;52.168;20.878;2022-07-21T00:57:53;7.60;;;4.40;;
50681;SDS011;36779;52.168;20.878;2022-07-21T01:00:22;6.20;;;4.70;;
50681;SDS011;36779;52.168;20.878;2022-07-21T01:02:53;6.90;;;4.60;;
50681;SDS011;36779;52.168;20.878;2022-07-21T01:05:21;6.60;;;4.90;;
50681;SDS011;36779;52.168;20.878;2022-07-21T01:07:51;5.60;;;4.50;;
50681;SDS011;36779;52.168;20.878;2022-07-21T01:10:22;6.70;;;4.70;;
50681;SDS011;36779;52.168;20.878;2022-07-21T01:12:52;5.20;;;4.70;;
50681;SDS011;36779;52.168;20.878;2022-07-21T01:15:21;6.90;;;4.40;;
50681;SDS011;36779;52.168;20.878;2022-07-21T01:17:50;6.70;;;4.50;;
50681;SDS011;36779;52.168;20.878;2022-07-21T01:20:20;5.00;;;4.50;;
50681;SDS011;36779;52.168;20.878;2022-07-21T01:22:50;6.60;;;5.00;;
50681;SDS011;36779;52.168;20.878;2022-07-21T01:25:20;6.80;;;4.60;;
50681;SDS011;36779;52.168;20.878;2022-07-21T01:27:49;6.60;;;4.60;;
50681;SDS011;36779;52.168;20.878;2022-07-21T01:30:18;5.90;;;4.70;;
50681;SDS011;36779;52.168;20.878;2022-07-21T01:32:46;6.90;;;4.90;;
50681;SDS011;36779;52.168;20.878;2022-07-21T01:35:15;6.90;;;5.00;;
50681;SDS011;36779;52.168;20.878;2022-07-21T01:37:44;6.70;;;5.10;;
50681;SDS011;36779;52.168;20.878;2022-07-21T01:40:15;8.00;;;4.90;;
50681;SDS011;36779;52.168;20.878;2022-07-21T01:43:03;5.60;;;4.40;;
50681;SDS011;36779;52.168;20.878;2022-07-21T01:45:39;5.60;;;4.50;;
50681;SDS011;36779;52.168;20.878;2022-07-21T01:48:08;5.10;;;4.50;;
50681;SDS011;36779;52.168;20.878;2022-07-21T01:50:37;6.20;;;4.70;;
50681;SDS011;36779;52.168;20.878;2022-07-21T01:53:06;6.80;;;5.40;;
50681;SDS011;36779;52.168;20.878;2022-07-21T01:55:34;6.50;;;4.80;;
50681;SDS011;36779;52.168;20.878;2022-07-21T01:58:03;7.00;;;5.10;;
50681;SDS011;36779;52.168;20.878;2022-07-21T02:00:32;5.70;;;4.90;;
50681;SDS011;36779;52.168;20.878;2022-07-21T02:03:00;6.30;;;4.70;;
50681;SDS011;36779;52.168;20.878;2022-07-21T02:05:30;5.60;;;4.60;;
50681;SDS011;36779;52.168;20.878;2022-07-21T02:07:58;7.80;;;5.30;;
50681;SDS011;36779;52.168;20.878;2022-07-21T02:10:26;5.80;;;5.20;;
50681;SDS011;36779;52.168;20.878;2022-07-21T02:12:58;6.60;;;5.60;;
50681;SDS011;36779;52.168;20.878;2022-07-21T02:15:26;7.90;;;5.50;;
50681;SDS011;36779;52.168;20.878;2022-07-21T02:17:55;6.30;;;5.30;;
50681;SDS011;36779;52.168;20.878;2022-07-21T02:20:24;5.60;;;4.80;;
50681;SDS011;36779;52.168;20.878;2022-07-21T02:22:53;6.90;;;5.20;;
50681;SDS011;36779;52.168;20.878;2022-07-21T02:25:21;8.20;;;5.30;;
50681;SDS011;36779;52.168;20.878;2022-07-21T02:27:50;7.10;;;5.30;;
50681;SDS011;36779;52.168;20.878;2022-07-21T02:30:19;8.40;;;5.00;;
50681;SDS011;36779;52.168;20.878;2022-07-21T02:32:48;6.70;;;4.90;;
50681;SDS011;36779;52.168;20.878;2022-07-21T02:35:17;8.00;;;4.70;;
50681;SDS011;36779;52.168;20.878;2022-07-21T02:37:45;6.00;;;5.00;;
50681;SDS011;36779;52.168;20.878;2022-07-21T02:40:13;7.60;;;5.60;;
50681;SDS011;36779;52.168;20.878;2022-07-21T02:42:42;6.40;;;4.90;;
50681;SDS011;36779;52.168;20.878;2022-07-21T02:45:11;7.30;;;5.70;;
50681;SDS011;36779;52.168;20.878;2022-07-21T02:47:51;8.20;;;5.60;;
50681;SDS011;36779;52.168;20.878;2022-07-21T02:50:21;7.50;;;5.50;;
50681;SDS011;36779;52.168;20.878;2022-07-21T02:52:51;7.30;;;4.60;;
50681;SDS011;36779;52.168;20.878;2022-07-21T02:55:23;7.00;;;5.40;;
50681;SDS011;36779;52.168;20.878;2022-07-21T02:58:02;8.40;;;5.70;;
50681;SDS011;36779;52.168;20.878;2022-07-21T03:00:36;6.20;;;5.50;;
50681;SDS011;36779;52.168;20.878;2022-07-21T03:03:07;7.30;;;5.30;;
50681;SDS011;36779;52.168;20.878;2022-07-21T03:05:37;7.90;;;5.30;;
50681;SDS011;36779;52.168;20.878;2022-07-21T03:08:07;6.60;;;4.80;;
50681;SDS011;36779;52.168;20.878;2022-07-21T03:10:37;7.10;;;5.10;;
50681;SDS011;36779;52.168;20.878;2022-07-21T03:13:06;6.90;;;5.50;;
50681;SDS011;36779;52.168;20.878;2022-07-21T03:15:35;7.10;;;5.60;;
50681;SDS011;36779;52.168;20.878;2022-07-21T03:18:04;8.60;;;5.60;;
50681;SDS011;36779;52.168;20.878;2022-07-21T03:20:34;6.30;;;5.30;;
50681;SDS011;36779;52.168;20.878;2022-07-21T03:23:04;6.40;;;5.10;;
50681;SDS011;36779;52.168;20.878;2022-07-21T03:25:33;6.90;;;5.70;;
50681;SDS011;36779;52.168;20.878;2022-07-21T03:28:03;7.90;;;5.40;;
50681;SDS011;36779;52.168;20.878;2022-07-21T03:30:33;7.20;;;5.30;;
50681;SDS011;36779;52.168;20.878;2022-07-21T03:33:03;7.20;;;5.50;;
50681;SDS011;36779;52.168;20.878;2022-07-21T03:35:32;5.80;;;5.10;;
50681;SDS011;36779;52.168;20.878;2022-07-21T03:38:03;8.10;;;5.60;;
50681;SDS011;36779;52.168;20.878;2022-07-21T03:40:35;8.50;;;5.60;;
50681;SDS011;36779;52.168;20.878;2022-07-21T03:43:05;8.90;;;5.20;;
50681;SDS011;36779;52.168;20.878;2022-07-21T03:45:36;7.50;;;5.40;;
50681;SDS011;36779;52.168;20.878;2022-07-21T03:48:06;7.20;;;5.20;;
50681;SDS011;36779;52.168;20.878;2022-07-21T03:50:35;5.40;;;4.80;;
50681;SDS011;36779;52.168;20.878;2022-07-21T03:53:06;8.20;;;5.00;;
50681;SDS011;36779;52.168;20.878;2022-07-21T03:55:35;8.20;;;5.10;;
50681;SDS011;36779;52.168;20.878;2022-07-21T03:58:06;7.30;;;4.90;;
50681;SDS011;36779;52.168;20.878;2022-07-21T04:00:35;8.30;;;5.00;;
50681;SDS011;36779;52.168;20.878;2022-07-21T04:03:06;6.00;;;4.70;;
50681;SDS011;36779;52.168;20.878;2022-07-21T04:05:36;6.90;;;4.60;;
50681;SDS011;36779;52.168;20.878;2022-07-21T04:08:07;6.50;;;4.80;;
50681;SDS011;36779;52.168;20.878;2022-07-21T04:10:39;5.30;;;4.30;;
50681;SDS011;36779;52.168;20.878;2022-07-21T04:13:10;7.90;;;4.40;;
50681;SDS011;36779;52.168;20.878;2022-07-21T04:15:41;8.20;;;4.30;;
50681;SDS011;36779;52.168;20.878;2022-07-21T04:18:10;6.60;;;4.20;;
50681;SDS011;36779;52.168;20.878;2022-07-21T04:20:38;4.40;;;4.00;;
50681;SDS011;36779;52.168;20.878;2022-07-21T04:23:07;6.20;;;4.80;;
50681;SDS011;36779;52.168;20.878;2022-07-21T04:25:35;5.50;;;4.10;;
50681;SDS011;36779;52.168;20.878;2022-07-21T04:28:06;4.30;;;3.90;;
50681;SDS011;36779;52.168;20.878;2022-07-21T04:30:35;6.80;;;3.90;;
50681;SDS011;36779;52.168;20.878;2022-07-21T04:33:04;7.80;;;4.50;;
50681;SDS011;36779;52.168;20.878;2022-07-21T04:35:34;5.20;;;4.00;;
50681;SDS011;36779;52.168;20.878;2022-07-21T04:38:02;6.40;;;4.10;;
50681;SDS011;36779;52.168;20.878;2022-07-21T04:40:32;7.20;;;4.10;;
50681;SDS011;36779;52.168;20.878;2022-07-21T04:43:01;4.60;;;4.00;;
50681;SDS011;36779;52.168;20.878;2022-07-21T04:45:31;5.90;;;3.90;;
50681;SDS011;36779;52.168;20.878;2022-07-21T04:48:01;4.70;;;3.80;;
50681;SDS011;36779;52.168;20.878;2022-07-21T04:50:31;6.00;;;3.90;;
50681;SDS011;36779;52.168;20.878;2022-07-21T04:52:59;4.50;;;4.10;;
50681;SDS011;36779;52.168;20.878;2022-07-21T04:55:28;5.50;;;3.70;;
50681;SDS011;36779;52.168;20.878;2022-07-21T04:57:59;5.20;;;3.70;;
50681;SDS011;36779;52.168;20.878;2022-07-21T05:00:28;4.90;;;3.60;;
50681;SDS011;36779;52.168;20.878;2022-07-21T05:02:57;6.90;;;4.00;;
50681;SDS011;36779;52.168;20.878;2022-07-21T05:05:26;8.70;;;3.40;;
50681;SDS011;36779;52.168;20.878;2022-07-21T05:07:56;5.10;;;3.40;;
50681;SDS011;36779;52.168;20.878;2022-07-21T05:10:24;6.80;;;3.40;;
50681;SDS011;36779;52.168;20.878;2022-07-21T05:12:53;8.70;;;3.40;;
50681;SDS011;36779;52.168;20.878;2022-07-21T05:15:21;5.80;;;3.10;;
50681;SDS011;36779;52.168;20.878;2022-07-21T05:17:50;4.80;;;3.20;;
50681;SDS011;36779;52.168;20.878;2022-07-21T05:20:19;4.90;;;3.10;;
50681;SDS011;36779;52.168;20.878;2022-07-21T05:22:47;5.90;;;3.00;;
50681;SDS011;36779;52.168;20.878;2022-07-21T05:25:16;4.60;;;2.70;;
50681;SDS011;36779;52.168;20.878;2022-07-21T05:27:44;4.60;;;2.90;;
50681;SDS011;36779;52.168;20.878;2022-07-21T05:30:13;7.00;;;2.80;;
50681;SDS011;36779;52.168;20.878;2022-07-21T05:32:42;6.00;;;2.40;;
50681;SDS011;36779;52.168;20.878;2022-07-21T05:35:15;5.10;;;2.50;;
50681;SDS011;36779;52.168;20.878;2022-07-21T05:37:44;5.10;;;2.80;;
50681;SDS011;36779;52.168;20.878;2022-07-21T05:40:13;6.10;;;2.50;;
50681;SDS011;36779;52.168;20.878;2022-07-21T05:42:42;5.90;;;2.20;;
50681;SDS011;36779;52.168;20.878;2022-07-21T05:45:10;5.00;;;2.70;;
50681;SDS011;36779;52.168;20.878;2022-07-21T05:47:39;4.10;;;2.50;;
50681;SDS011;36779;52.168;20.878;2022-07-21T05:50:09;6.10;;;2.10;;
50681;SDS011;36779;52.168;20.878;2022-07-21T05:52:38;4.00;;;2.20;;
50681;SDS011;36779;52.168;20.878;2022-07-21T05:55:08;4.60;;;2.30;;
50681;SDS011;36779;52.168;20.878;2022-07-21T05:57:37;4.60;;;2.00;;
50681;SDS011;36779;52.168;20.878;2022-07-21T06:00:14;4.90;;;2.10;;
50681;SDS011;36779;52.168;20.878;2022-07-21T06:02:44;4.70;;;2.30;;
50681;SDS011;36779;52.168;20.878;2022-07-21T06:05:13;3.10;;;2.00;;
50681;SDS011;36779;52.168;20.878;2022-07-21T06:07:42;3.80;;;2.10;;
50681;SDS011;36779;52.168;20.878;2022-07-21T06:10:10;4.30;;;2.30;;
50681;SDS011;36779;52.168;20.878;2022-07-21T06:12:43;5.50;;;2.30;;
50681;SDS011;36779;52.168;20.878;2022-07-21T06:15:12;4.40;;;2.50;;
50681;SDS011;36779;52.168;20.878;2022-07-21T06:17:41;4.90;;;2.30;;
50681;SDS011;36779;52.168;20.878;2022-07-21T06:20:12;2.40;;;2.10;;
50681;SDS011;36779;52.168;20.878;2022-07-21T06:22:41;4.20;;;2.00;;
50681;SDS011;36779;52.168;20.878;2022-07-21T06:25:09;5.90;;;2.40;;
50681;SDS011;36779;52.168;20.878;2022-07-21T06:27:38;5.20;;;2.50;;
50681;SDS011;36779;52.168;20.878;2022-07-21T06:30:08;4.60;;;2.40;;
50681;SDS011;36779;52.168;20.878;2022-07-21T06:32:38;5.10;;;2.30;;
50681;SDS011;36779;52.168;20.878;2022-07-21T06:35:08;3.30;;;2.40;;
50681;SDS011;36779;52.168;20.878;2022-07-21T06:37:37;5.10;;;2.20;;
50681;SDS011;36779;52.168;20.878;2022-07-21T06:40:08;2.90;;;2.00;;
50681;SDS011;36779;52.168;20.878;2022-07-21T06:42:38;4.00;;;2.10;;
50681;SDS011;36779;52.168;20.878;2022-07-21T06:45:26;3.50;;;2.10;;
50681;SDS011;36779;52.168;20.878;2022-07-21T06:47:59;4.40;;;1.90;;
50681;SDS011;36779;52.168;20.878;2022-07-21T06:50:30;5.60;;;2.00;;
50681;SDS011;36779;52.168;20.878;2022-07-21T06:52:58;3.00;;;2.00;;
50681;SDS011;36779;52.168;20.878;2022-07-21T06:55:27;3.80;;;2.10;;
50681;SDS011;36779;52.168;20.878;2022-07-21T06:57:58;5.20;;;2.10;;
50681;SDS011;36779;52.168;20.878;2022-07-21T07:00:36;5.50;;;2.20;;
50681;SDS011;36779;52.168;20.878;2022-07-21T07:03:06;3.90;;;1.70;;
50681;SDS011;36779;52.168;20.878;2022-07-21T07:05:36;2.10;;;1.80;;
50681;SDS011;36779;52.168;20.878;2022-07-21T07:08:06;5.40;;;2.20;;
50681;SDS011;36779;52.168;20.878;2022-07-21T07:10:39;4.80;;;2.10;;
50681;SDS011;36779;52.168;20.878;2022-07-21T07:13:08;2.30;;;1.60;;
50681;SDS011;36779;52.168;20.878;2022-07-21T07:15:57;5.60;;;1.80;;
50681;SDS011;36779;52.168;20.878;2022-07-21T07:18:26;3.90;;;1.80;;
50681;SDS011;36779;52.168;20.878;2022-07-21T07:20:55;2.30;;;1.80;;
50681;SDS011;36779;52.168;20.878;2022-07-21T07:23:24;5.50;;;1.70;;
50681;SDS011;36779;52.168;20.878;2022-07-21T07:25:53;3.60;;;1.70;;
50681;SDS011;36779;52.168;20.878;2022-07-21T07:28:21;3.20;;;1.50;;
50681;SDS011;36779;52.168;20.878;2022-07-21T07:30:50;2.70;;;1.30;;
50681;SDS011;36779;52.168;20.878;2022-07-21T07:33:19;5.50;;;1.70;;
50681;SDS011;36779;52.168;20.878;2022-07-21T07:35:48;3.60;;;1.30;;
50681;SDS011;36779;52.168;20.878;2022-07-21T07:38:17;3.90;;;1.50;;
50681;SDS011;36779;52.168;20.878;2022-07-21T07:40:46;3.50;;;1.20;;
50681;SDS011;36779;52.168;20.878;2022-07-21T07:43:14;4.10;;;1.20;;
50681;SDS011;36779;52.168;20.878;2022-07-21T07:45:43;2.10;;;1.10;;
50681;SDS011;36779;52.168;20.878;2022-07-21T07:48:11;5.00;;;1.30;;
50681;SDS011;36779;52.168;20.878;2022-07-21T07:50:40;2.50;;;1.50;;
50681;SDS011;36779;52.168;20.878;2022-07-21T07:53:08;3.40;;;1.30;;
50681;SDS011;36779;52.168;20.878;2022-07-21T07:55:37;3.30;;;1.10;;
50681;SDS011;36779;52.168;20.878;2022-07-21T07:58:06;3.00;;;1.20;;
50681;SDS011;36779;52.168;20.878;2022-07-21T08:00:34;2.30;;;1.40;;
50681;SDS011;36779;52.168;20.878;2022-07-21T08:03:23;2.50;;;1.30;;
50681;SDS011;36779;52.168;20.878;2022-07-21T08:05:53;1.80;;;1.20;;
50681;SDS011;36779;52.168;20.878;2022-07-21T08:08:23;1.90;;;1.50;;
50681;SDS011;36779;52.168;20.878;2022-07-21T08:10:52;2.60;;;1.30;;
50681;SDS011;36779;52.168;20.878;2022-07-21T08:13:20;3.10;;;1.30;;
50681;SDS011;36779;52.168;20.878;2022-07-21T08:15:49;2.40;;;1.00;;
50681;SDS011;36779;52.168;20.878;2022-07-21T08:18:18;2.50;;;1.50;;
50681;SDS011;36779;52.168;20.878;2022-07-21T08:20:48;1.30;;;0.90;;
50681;SDS011;36779;52.168;20.878;2022-07-21T08:23:17;3.90;;;1.10;;
50681;SDS011;36779;52.168;20.878;2022-07-21T08:25:45;2.00;;;1.00;;
50681;SDS011;36779;52.168;20.878;2022-07-21T08:28:14;3.60;;;1.10;;
50681;SDS011;36779;52.168;20.878;2022-07-21T08:30:43;4.80;;;1.30;;
50681;SDS011;36779;52.168;20.878;2022-07-21T08:33:16;2.50;;;1.20;;
50681;SDS011;36779;52.168;20.878;2022-07-21T08:35:45;2.00;;;1.10;;
50681;SDS011;36779;52.168;20.878;2022-07-21T08:38:13;1.30;;;1.10;;
50681;SDS011;36779;52.168;20.878;2022-07-21T08:40:43;2.40;;;1.10;;
50681;SDS011;36779;52.168;20.878;2022-07-21T08:43:13;1.30;;;1.20;;
50681;SDS011;36779;52.168;20.878;2022-07-21T08:45:42;3.30;;;1.40;;
50681;SDS011;36779;52.168;20.878;2022-07-21T08:48:10;2.60;;;1.40;;
50681;SDS011;36779;52.168;20.878;2022-07-21T08:50:41;4.30;;;1.20;;
50681;SDS011;36779;52.168;20.878;2022-07-21T08:53:10;2.20;;;1.20;;
50681;SDS011;36779;52.168;20.878;2022-07-21T08:55:39;2.60;;;1.40;;
50681;SDS011;36779;52.168;20.878;2022-07-21T08:58:08;3.70;;;1.10;;
50681;SDS011;36779;52.168;20.878;2022-07-21T09:00:40;2.50;;;1.20;;
50681;SDS011;36779;52.168;20.878;2022-07-21T09:03:12;3.20;;;1.10;;
50681;SDS011;36779;52.168;20.878;2022-07-21T09:05:43;1.60;;;1.00;;
50681;SDS011;36779;52.168;20.878;2022-07-21T09:08:28;2.20;;;1.10;;
50681;SDS011;36779;52.168;20.878;2022-07-21T09:11:09;1.90;;;1.10;;
50681;SDS011;36779;52.168;20.878;2022-07-21T09:13:39;2.50;;;1.10;;
50681;SDS011;36779;52.168;20.878;2022-07-21T09:16:08;2.30;;;1.10;;
50681;SDS011;36779;52.168;20.878;2022-07-21T09:18:48;3.80;;;1.30;;
50681;SDS011;36779;52.168;20.878;2022-07-21T09:21:19;1.30;;;1.00;;
50681;SDS011;36779;52.168;20.878;2022-07-21T09:23:48;2.80;;;1.10;;
50681;SDS011;36779;52.168;20.878;2022-07-21T09:26:17;2.00;;;1.10;;
50681;SDS011;36779;52.168;20.878;2022-07-21T09:28:46;2.10;;;1.20;;
50681;SDS011;36779;52.168;20.878;2022-07-21T09:31:15;1.30;;;1.00;;
50681;SDS011;36779;52.168;20.878;2022-07-21T09:33:44;4.50;;;1.30;;
50681;SDS011;36779;52.168;20.878;2022-07-21T09:36:15;3.90;;;1.30;;
50681;SDS011;36779;52.168;20.878;2022-07-21T09:38:51;7.80;;;1.40;;
50681;SDS011;36779;52.168;20.878;2022-07-21T09:41:24;1.80;;;1.10;;
50681;SDS011;36779;52.168;20.878;2022-07-21T09:43:54;4.00;;;0.90;;
50681;SDS011;36779;52.168;20.878;2022-07-21T09:46:25;3.00;;;1.40;;
50681;SDS011;36779;52.168;20.878;2022-07-21T09:48:58;2.00;;;1.20;;
50681;SDS011;36779;52.168;20.878;2022-07-21T09:51:49;1.90;;;1.00;;
50681;SDS011;36779;52.168;20.878;2022-07-21T09:54:17;1.70;;;1.20;;
50681;SDS011;36779;52.168;20.878;2022-07-21T09:56:45;3.90;;;1.00;;
50681;SDS011;36779;52.168;20.878;2022-07-21T09:59:14;1.90;;;1.10;;
50681;SDS011;36779;52.168;20.878;2022-07-21T10:01:43;2.00;;;1.20;;
50681;SDS011;36779;52.168;20.878;2022-07-21T10:04:14;3.00;;;1.10;;
50681;SDS011;36779;52.168;20.878;2022-07-21T10:06:48;2.40;;;1.10;;
50681;SDS011;36779;52.168;20.878;2022-07-21T10:09:17;3.20;;;1.20;;
50681;SDS011;36779;52.168;20.878;2022-07-21T10:11:45;2.10;;;1.00;;
50681;SDS011;36779;52.168;20.878;2022-07-21T10:14:15;3.90;;;1.10;;
50681;SDS011;36779;52.168;20.878;2022-07-21T10:16:44;1.60;;;1.10;;
50681;SDS011;36779;52.168;20.878;2022-07-21T10:19:20;3.30;;;1.10;;
50681;SDS011;36779;52.168;20.878;2022-07-21T10:24:28;4.60;;;1.20;;
50681;SDS011;36779;52.168;20.878;2022-07-21T10:27:03;5.10;;;1.30;;
50681;SDS011;36779;52.168;20.878;2022-07-21T10:32:33;2.80;;;0.90;;
50681;SDS011;36779;52.168;20.878;2022-07-21T10:37:54;4.40;;;1.10;;
50681;SDS011;36779;52.168;20.878;2022-07-21T10:40:35;3.90;;;1.10;;
50681;SDS011;36779;52.168;20.878;2022-07-21T10:46:11;1.80;;;1.30;;
50681;SDS011;36779;52.168;20.878;2022-07-21T10:49:05;2.70;;;1.20;;
50681;SDS011;36779;52.168;20.878;2022-07-21T10:51:36;3.80;;;1.10;;
50681;SDS011;36779;52.168;20.878;2022-07-21T10:54:24;2.10;;;1.00;;
50681;SDS011;36779;52.168;20.878;2022-07-21T11:02:36;2.80;;;1.20;;
50681;SDS011;36779;52.168;20.878;2022-07-21T11:05:08;4.10;;;1.50;;
50681;SDS011;36779;52.168;20.878;2022-07-21T11:10:42;3.00;;;1.10;;
50681;SDS011;36779;52.168;20.878;2022-07-21T11:13:12;2.80;;;1.10;;
50681;SDS011;36779;52.168;20.878;2022-07-21T11:15:43;6.10;;;1.30;;
50681;SDS011;36779;52.168;20.878;2022-07-21T11:18:16;1.90;;;1.30;;
50681;SDS011;36779;52.168;20.878;2022-07-21T11:23:35;2.30;;;1.30;;
50681;SDS011;36779;52.168;20.878;2022-07-21T11:26:05;2.60;;;1.20;;
50681;SDS011;36779;52.168;20.878;2022-07-21T11:28:34;2.80;;;1.20;;
50681;SDS011;36779;52.168;20.878;2022-07-21T11:31:06;6.00;;;1.20;;
50681;SDS011;36779;52.168;20.878;2022-07-21T11:33:36;7.00;;;1.40;;
50681;SDS011;36779;52.168;20.878;2022-07-21T11:36:07;3.40;;;1.20;;
50681;SDS011;36779;52.168;20.878;2022-07-21T11:41:32;1.50;;;1.00;;
50681;SDS011;36779;52.168;20.878;2022-07-21T11:44:01;1.90;;;1.40;;
50681;SDS011;36779;52.168;20.878;2022-07-21T11:46:44;3.30;;;1.20;;
50681;SDS011;36779;52.168;20.878;2022-07-21T11:49:14;2.50;;;1.40;;
50681;SDS011;36779;52.168;20.878;2022-07-21T11:51:47;2.80;;;1.20;;
50681;SDS011;36779;52.168;20.878;2022-07-21T11:54:20;3.10;;;1.20;;
50681;SDS011;36779;52.168;20.878;2022-07-21T11:56:51;1.60;;;1.20;;
50681;SDS011;36779;52.168;20.878;2022-07-21T11:59:21;4.10;;;1.20;;
50681;SDS011;36779;52.168;20.878;2022-07-21T12:01:51;4.20;;;1.20;;
50681;SDS011;36779;52.168;20.878;2022-07-21T12:04:32;4.10;;;1.30;;
50681;SDS011;36779;52.168;20.878;2022-07-21T12:07:11;2.30;;;1.20;;
50681;SDS011;36779;52.168;20.878;2022-07-21T12:09:44;3.40;;;1.50;;
50681;SDS011;36779;52.168;20.878;2022-07-21T12:12:32;2.50;;;1.60;;
50681;SDS011;36779;52.168;20.878;2022-07-21T12:15:11;2.40;;;1.20;;
50681;SDS011;36779;52.168;20.878;2022-07-21T12:17:43;2.00;;;1.20;;
50681;SDS011;36779;52.168;20.878;2022-07-21T12:20:14;2.90;;;1.50;;
50681;SDS011;36779;52.168;20.878;2022-07-21T12:22:51;2.30;;;1.40;;
50681;SDS011;36779;52.168;20.878;2022-07-21T12:25:31;3.20;;;1.30;;
50681;SDS011;36779;52.168;20.878;2022-07-21T12:28:02;2.00;;;1.30;;
50681;SDS011;36779;52.168;20.878;2022-07-21T12:30:33;3.10;;;1.40;;
50681;SDS011;36779;52.168;20.878;2022-07-21T12:33:04;3.00;;;1.80;;
50681;SDS011;36779;52.168;20.878;2022-07-21T12:35:35;3.00;;;1.60;;
50681;SDS011;36779;52.168;20.878;2022-07-21T12:38:06;4.50;;;1.40;;
50681;SDS011;36779;52.168;20.878;2022-07-21T12:40:37;4.00;;;1.70;;
50681;SDS011;36779;52.168;20.878;2022-07-21T12:43:28;3.90;;;1.70;;
50681;SDS011;36779;52.168;20.878;2022-07-21T12:46:00;3.60;;;1.50;;
50681;SDS011;36779;52.168;20.878;2022-07-21T12:48:31;2.70;;;1.80;;
50681;SDS011;36779;52.168;20.878;2022-07-21T12:51:04;2.10;;;1.30;;
50681;SDS011;36779;52.168;20.878;2022-07-21T12:53:42;2.70;;;1.60;;
50681;SDS011;36779;52.168;20.878;2022-07-21T12:56:13;7.40;;;1.80;;
50681;SDS011;36779;52.168;20.878;2022-07-21T12:58:43;5.10;;;1.80;;
50681;SDS011;36779;52.168;20.878;2022-07-21T13:01:12;5.60;;;1.70;;
50681;SDS011;36779;52.168;20.878;2022-07-21T13:03:42;4.40;;;1.50;;
50681;SDS011;36779;52.168;20.878;2022-07-21T13:06:11;3.20;;;1.50;;
50681;SDS011;36779;52.168;20.878;2022-07-21T13:08:41;4.00;;;1.50;;
50681;SDS011;36779;52.168;20.878;2022-07-21T13:11:11;4.50;;;1.90;;
50681;SDS011;36779;52.168;20.878;2022-07-21T13:13:41;3.60;;;1.50;;
50681;SDS011;36779;52.168;20.878;2022-07-21T13:16:10;5.70;;;1.80;;
50681;SDS011;36779;52.168;20.878;2022-07-21T13:18:39;3.60;;;1.90;;
50681;SDS011;36779;52.168;20.878;2022-07-21T13:21:07;2.80;;;1.20;;
50681;SDS011;36779;52.168;20.878;2022-07-21T13:23:37;3.80;;;1.70;;
50681;SDS011;36779;52.168;20.878;2022-07-21T13:26:06;8.00;;;1.90;;
50681;SDS011;36779;52.168;20.878;2022-07-21T13:28:34;3.50;;;1.80;;
50681;SDS011;36779;52.168;20.878;2022-07-21T13:31:05;2.40;;;1.40;;
50681;SDS011;36779;52.168;20.878;2022-07-21T13:33:35;3.50;;;1.40;;
50681;SDS011;36779;52.168;20.878;2022-07-21T13:36:05;6.50;;;1.70;;
50681;SDS011;36779;52.168;20.878;2022-07-21T13:38:36;4.50;;;1.70;;
50681;SDS011;36779;52.168;20.878;2022-07-21T13:41:05;3.70;;;1.60;;
50681;SDS011;36779;52.168;20.878;2022-07-21T13:43:53;2.70;;;1.70;;
50681;SDS011;36779;52.168;20.878;2022-07-21T13:46:22;2.10;;;1.50;;
50681;SDS011;36779;52.168;20.878;2022-07-21T13:48:52;6.40;;;1.60;;
50681;SDS011;36779;52.168;20.878;2022-07-21T13:51:21;4.80;;;1.50;;
50681;SDS011;36779;52.168;20.878;2022-07-21T13:53:50;7.00;;;1.70;;
50681;SDS011;36779;52.168;20.878;2022-07-21T13:56:21;3.70;;;1.80;;
50681;SDS011;36779;52.168;20.878;2022-07-21T13:58:50;3.40;;;1.80;;
50681;SDS011;36779;52.168;20.878;2022-07-21T14:01:19;3.80;;;1.50;;
50681;SDS011;36779;52.168;20.878;2022-07-21T14:03:50;4.70;;;1.60;;
50681;SDS011;36779;52.168;20.878;2022-07-21T14:06:20;4.70;;;1.80;;
50681;SDS011;36779;52.168;20.878;2022-07-21T14:08:49;3.30;;;1.60;;
50681;SDS011;36779;52.168;20.878;2022-07-21T14:11:18;4.30;;;1.80;;
50681;SDS011;36779;52.168;20.878;2022-07-21T14:13:50;5.00;;;1.70;;
50681;SDS011;36779;52.168;20.878;2022-07-21T14:16:19;2.80;;;1.50;;
50681;SDS011;36779;52.168;20.878;2022-07-21T14:18:48;4.90;;;1.60;;
50681;SDS011;36779;52.168;20.878;2022-07-21T14:21:17;3.70;;;1.90;;
50681;SDS011;36779;52.168;20.878;2022-07-21T14:23:46;3.20;;;1.80;;
50681;SDS011;36779;52.168;20.878;2022-07-21T14:26:39;4.40;;;1.70;;
50681;SDS011;36779;52.168;20.878;2022-07-21T14:29:09;4.00;;;1.90;;
50681;SDS011;36779;52.168;20.878;2022-07-21T14:31:37;6.50;;;2.10;;
50681;SDS011;36779;52.168;20.878;2022-07-21T14:34:06;4.10;;;1.90;;
50681;SDS011;36779;52.168;20.878;2022-07-21T14:36:34;4.20;;;1.80;;
50681;SDS011;36779;52.168;20.878;2022-07-21T14:39:03;6.30;;;1.60;;
50681;SDS011;36779;52.168;20.878;2022-07-21T14:41:32;4.20;;;1.80;;
50681;SDS011;36779;52.168;20.878;2022-07-21T14:44:01;7.10;;;1.70;;
50681;SDS011;36779;52.168;20.878;2022-07-21T14:46:30;4.10;;;1.60;;
50681;SDS011;36779;52.168;20.878;2022-07-21T14:48:59;5.40;;;1.80;;
50681;SDS011;36779;52.168;20.878;2022-07-21T14:51:27;5.60;;;1.80;;
50681;SDS011;36779;52.168;20.878;2022-07-21T14:53:57;4.80;;;2.10;;
50681;SDS011;36779;52.168;20.878;2022-07-21T14:56:26;4.70;;;1.90;;
50681;SDS011;36779;52.168;20.878;2022-07-21T14:59:15;6.90;;;2.20;;
50681;SDS011;36779;52.168;20.878;2022-07-21T15:01:43;5.60;;;2.00;;
50681;SDS011;36779;52.168;20.878;2022-07-21T15:04:12;3.60;;;2.00;;
50681;SDS011;36779;52.168;20.878;2022-07-21T15:06:41;4.10;;;1.90;;
50681;SDS011;36779;52.168;20.878;2022-07-21T15:09:10;4.40;;;2.00;;
50681;SDS011;36779;52.168;20.878;2022-07-21T15:11:38;5.60;;;2.00;;
50681;SDS011;36779;52.168;20.878;2022-07-21T15:14:07;6.70;;;2.00;;
50681;SDS011;36779;52.168;20.878;2022-07-21T15:16:39;6.10;;;2.00;;
50681;SDS011;36779;52.168;20.878;2022-07-21T15:19:09;3.80;;;1.80;;